Hlavní strana
METAR-TAF:

METAR-TAF

Letiště :

Homel, Bělorusko

zeměpisná šířka: 52-31-36N, zeměpisná délka: 031-01-06E, výška: 144 m

Aktuální stav počasí

Zpráva byla vytvořena před 1 hodinou a 54 minutami, v 01:00 UTC
Východoseverovýchodní vítr 12 kt
Teplota 8°C
Vlhkost vzduchu 87%
Tlak 1032 hPa
Viditelnost 10 km a více
Oblačno až skoro zataženo ve výšce 3200 ft

METAR: UMGG 290100Z 07006MPS 9999 BKN032 08/06 Q1032 R28/CLRD// NOSIG

Čas: 05:54 (02:54 UTC)

Předpověď počasí

Zpráva byla vytvořena před 3 hodinami a 52 minutami, v 23:02 UTC
Předpověď platná od 29 v 00 UTC do 29 v 24 UTC
Východní vítr 12 kt
Viditelnost: 6000 m
Oblačno až skoro zataženo ve výšce 1300 ft
Dočasný
od 29 v 00 UTC do 29 v 06 UTC
Viditelnost: 1200 m
Oblačno až skoro zataženo ve výšce 400 ft
kouřmo
Změna
od 29 v 06 UTC do 29 v 08 UTC
Východní vítr 12 kt

TAF: UMGG 282302Z 2900/2924 08006MPS 6000 BKN013 TEMPO 2900/2906 1200 BR BKN004 BECMG 2906/2908 10006MPS

Stav a předpovědi počasí z více než 4 000 letišť (zprávy METAR a TAF).

Červené a žluté tečky na mapě představují dostupné meteorologické stanice.

Když kurzor umístíte na tečku, zobrazí se název stanice.

Pak kliknutím zobrazíte stav a předpověď počasí.

Chcete-li změnit mapu, kliknutím na zelené tlačítko se znaménkem +mapu přiblížíte, kliknutím na zelené tlačítko se znaménkem – mapu oddálíte a kliknutím na zelené šipky přejdete na sousední mapy.


METAR-TAF: